Time;durP1;ratioP1;P1;durP2;ratioP2;P2;SDS_P1;SDS_P2;PMS_P1;PMS_P2;Temp;Humidity;BMP_temperature;BMP_pressure;BME280_temperature;BME280_humidity;BME280_pressure;Samples;Min_cycle;Max_cycle;Signal;HPM_P1;HPM_P2
2024/02/13 00:01:15;;;;;;;12.60;7.13;;;-2.00;99.90;;;;;;5076552;28;20021;-83
2024/02/13 00:03:41;;;;;;;11.02;7.93;;;-2.00;99.90;;;;;;5076180;28;20083;-83
2024/02/13 00:06:09;;;;;;;11.15;7.72;;;-2.00;99.90;;;;;;5076844;28;20025;-84
2024/02/13 00:08:36;;;;;;;10.90;7.80;;;-2.00;99.90;;;;;;5078033;28;20047;-85
2024/02/13 00:11:06;;;;;;;12.02;7.20;;;-2.00;99.90;;;;;;5079508;28;20025;-85
2024/02/13 00:13:34;;;;;;;16.40;7.53;;;-2.00;99.90;;;;;;5083485;28;20024;-83
2024/02/13 00:16:00;;;;;;;12.50;8.38;;;-1.90;99.90;;;;;;5083165;28;20121;-84
2024/02/13 00:18:26;;;;;;;10.57;7.63;;;-1.90;99.90;;;;;;5077401;28;20116;-85
2024/02/13 00:20:54;;;;;;;9.45;6.97;;;-2.00;99.90;;;;;;5080402;28;20020;-85
2024/02/13 00:23:21;;;;;;;8.95;5.13;;;-2.00;99.90;;;;;;5079698;28;20032;-84
2024/02/13 00:25:47;;;;;;;;;;;-2.10;99.90;;;;;;5078499;28;20538;-85
2024/02/13 00:28:13;;;;;;;10.93;7.15;;;-2.10;99.90;;;;;;5090028;28;19905;-85
2024/02/13 00:30:40;;;;;;;13.32;7.28;;;-2.10;99.90;;;;;;5076383;28;20100;-84
2024/02/13 00:33:07;;;;;;;11.70;7.78;;;-2.10;99.90;;;;;;5076666;28;20119;-85
2024/02/13 00:35:33;;;;;;;12.32;8.35;;;-2.10;99.90;;;;;;5083745;28;20008;-85
2024/02/13 00:37:59;;;;;;;14.48;8.93;;;-2.10;99.90;;;;;;5082940;28;20040;-84
2024/02/13 00:40:24;;;;;;;12.23;8.20;;;-2.10;99.90;;;;;;5074047;28;20024;-85
2024/02/13 00:42:52;;;;;;;14.10;8.98;;;-2.10;99.90;;;;;;5074051;28;20048;-84
2024/02/13 00:45:19;;;;;;;13.25;9.68;;;-2.10;99.90;;;;;;5075897;28;20017;-84
2024/02/13 00:47:45;;;;;;;14.57;8.83;;;-2.10;99.90;;;;;;5074500;28;20048;-84
2024/02/13 00:50:11;;;;;;;14.23;8.40;;;-2.10;99.90;;;;;;5076537;28;20020;-85
2024/02/13 00:52:42;;;;;;;12.13;7.90;;;-2.10;99.90;;;;;;5077921;28;20025;-84
2024/02/13 00:55:08;;;;;;;13.80;10.23;;;-2.10;99.90;;;;;;5077029;28;20017;-84
2024/02/13 00:57:35;;;;;;;11.80;7.40;;;-2.20;99.90;;;;;;5079334;28;20092;-84
2024/02/13 01:00:03;;;;;;;19.25;12.15;;;-2.30;99.90;;;;;;5077139;28;20017;-84
2024/02/13 01:02:29;;;;;;;14.80;10.52;;;-2.30;99.90;;;;;;5078172;28;20115;-85
2024/02/13 01:04:54;;;;;;;16.17;9.43;;;-2.50;99.90;;;;;;5076337;28;20039;-85
2024/02/13 01:07:20;;;;;;;13.77;8.05;;;-2.50;99.90;;;;;;5075844;28;20024;-85
2024/02/13 01:09:46;;;;;;;17.13;9.80;;;-2.50;99.90;;;;;;5088624;28;20058;-86
2024/02/13 01:12:12;;;;;;;10.70;7.72;;;-2.50;99.90;;;;;;5082199;28;20038;-82
2024/02/13 01:14:38;;;;;;;15.13;9.63;;;-2.50;99.90;;;;;;5092194;28;20036;-82
2024/02/13 01:17:04;;;;;;;17.55;10.40;;;-2.50;99.90;;;;;;5069435;28;20363;-84
2024/02/13 01:19:31;;;;;;;18.52;10.55;;;-2.50;99.90;;;;;;5078637;28;20028;-84
2024/02/13 01:21:57;;;;;;;18.90;10.43;;;-2.50;99.90;;;;;;5094840;28;20058;-87
2024/02/13 01:24:26;;;;;;;17.58;10.68;;;-2.50;99.90;;;;;;5081342;28;20033;-85
2024/02/13 01:26:53;;;;;;;20.08;12.68;;;-2.50;99.90;;;;;;5096446;28;20012;-84
2024/02/13 01:29:20;;;;;;;19.85;11.55;;;-2.50;99.90;;;;;;5084843;28;20020;-86
2024/02/13 01:31:47;;;;;;;12.20;6.65;;;-2.50;99.90;;;;;;5076792;28;20035;-83
2024/02/13 01:34:13;;;;;;;16.48;12.27;;;-2.50;99.90;;;;;;5087824;28;20031;-82
2024/02/13 01:36:39;;;;;;;21.73;12.55;;;-2.60;99.90;;;;;;5088381;28;20048;-83
2024/02/13 01:39:05;;;;;;;20.60;14.02;;;-2.60;99.90;;;;;;5075335;28;20017;-83
2024/02/13 01:41:32;;;;;;;7.10;5.60;;;-2.60;99.90;;;;;;5076291;28;20107;-84
2024/02/13 01:43:58;;;;;;;14.40;9.80;;;-2.60;99.90;;;;;;5080064;28;20041;-83
2024/02/13 01:46:26;;;;;;;21.08;11.75;;;-2.60;99.90;;;;;;5073545;28;20364;-84
2024/02/13 01:48:58;;;;;;;22.17;12.25;;;-2.70;99.90;;;;;;5072906;28;20039;-84
2024/02/13 01:51:27;;;;;;;20.23;11.93;;;-2.80;99.90;;;;;;5074488;28;20389;-84
2024/02/13 01:54:01;;;;;;;18.65;11.63;;;-2.80;99.90;;;;;;5073600;28;20024;-84
2024/02/13 01:56:29;;;;;;;21.48;13.07;;;-2.80;99.90;;;;;;5074396;28;20020;-84
2024/02/13 01:58:56;;;;;;;;;;;-2.80;99.90;;;;;;5074345;28;20028;-84
2024/02/13 02:01:24;;;;;;;20.30;11.30;;;-2.80;99.90;;;;;;5072229;28;19905;-84
2024/02/13 02:03:52;;;;;;;19.45;11.98;;;-2.80;99.90;;;;;;5073518;28;20066;-85
2024/02/13 02:06:19;;;;;;;15.35;9.35;;;-2.80;99.90;;;;;;5073284;28;20032;-85
2024/02/13 02:08:46;;;;;;;19.92;12.43;;;-2.80;99.90;;;;;;5087190;28;20048;-84
2024/02/13 02:11:13;;;;;;;25.65;14.00;;;-2.80;99.90;;;;;;5074019;28;20040;-85
2024/02/13 02:13:39;;;;;;;25.05;15.35;;;-2.80;99.90;;;;;;5073194;28;20029;-84
2024/02/13 02:16:06;;;;;;;19.40;12.98;;;-2.90;99.90;;;;;;5072514;28;20073;-83
2024/02/13 02:18:32;;;;;;;19.30;13.65;;;-2.90;99.90;;;;;;5073606;28;20028;-84
2024/02/13 02:20:58;;;;;;;19.13;11.70;;;-2.90;99.90;;;;;;5073748;28;20121;-84
2024/02/13 02:23:26;;;;;;;19.70;12.50;;;-3.00;99.90;;;;;;5073440;28;20458;-83
2024/02/13 02:25:52;;;;;;;24.30;15.45;;;-3.00;99.90;;;;;;5080515;28;20009;-83
2024/02/13 02:28:19;;;;;;;24.55;15.52;;;-3.00;99.90;;;;;;5073339;28;20020;-82
2024/02/13 02:30:46;;;;;;;21.75;12.90;;;-3.00;99.90;;;;;;5071867;28;20489;-82
2024/02/13 02:33:14;;;;;;;18.52;10.65;;;-3.10;99.90;;;;;;5073331;28;20024;-84
2024/02/13 02:35:43;;;;;;;29.15;15.25;;;-3.10;99.90;;;;;;5080023;28;20021;-82
2024/02/13 02:38:15;;;;;;;23.35;13.40;;;-3.20;99.90;;;;;;5073483;28;20021;-83
2024/02/13 02:40:41;;;;;;;21.17;13.00;;;-3.20;99.90;;;;;;5078681;28;20024;-81
2024/02/13 02:43:07;;;;;;;21.30;12.20;;;-3.20;99.90;;;;;;5082153;28;20478;-83
2024/02/13 02:45:33;;;;;;;27.42;15.18;;;-3.20;99.90;;;;;;5073636;28;20035;-84
2024/02/13 02:47:59;;;;;;;26.08;12.95;;;-3.20;99.90;;;;;;5072371;28;20035;-83
2024/02/13 02:50:25;;;;;;;20.52;13.38;;;-3.20;99.90;;;;;;5074293;28;20028;-81
2024/02/13 02:52:54;;;;;;;20.30;13.32;;;-3.20;99.90;;;;;;5073828;28;20026;-83
2024/02/13 02:55:21;;;;;;;22.77;12.95;;;-3.10;99.90;;;;;;5068406;28;20505;-83
2024/02/13 02:57:47;;;;;;;15.75;7.43;;;-3.10;99.90;;;;;;5064388;28;20016;-83
2024/02/13 03:00:15;;;;;;;21.20;14.70;;;-3.10;99.90;;;;;;5076317;28;20020;-84
2024/02/13 03:02:41;;;;;;;20.38;12.75;;;-3.20;99.90;;;;;;5088280;28;20025;-82
2024/02/13 03:05:11;;;;;;;22.67;12.95;;;-3.20;99.90;;;;;;5088523;28;20062;-81
2024/02/13 03:07:37;;;;;;;23.58;14.23;;;-3.20;99.90;;;;;;5075593;28;20021;-83
2024/02/13 03:10:05;;;;;;;23.70;14.52;;;-3.20;99.90;;;;;;5078151;28;20048;-83
2024/02/13 03:12:31;;;;;;;19.77;12.52;;;-3.20;99.90;;;;;;5073690;28;20539;-81
2024/02/13 03:14:57;;;;;;;28.65;14.48;;;-3.20;99.90;;;;;;5072836;28;20139;-82
2024/02/13 03:17:23;;;;;;;24.27;15.52;;;-3.20;99.90;;;;;;5072955;28;20017;-82
2024/02/13 03:19:49;;;;;;;24.25;15.23;;;-3.30;99.90;;;;;;5072566;28;20440;-83
2024/02/13 03:22:22;;;;;;;24.05;13.68;;;-3.30;99.90;;;;;;5073629;28;20046;-83
2024/02/13 03:24:48;;;;;;;27.73;17.92;;;-3.40;99.90;;;;;;5076844;28;20058;-81
2024/02/13 03:27:15;;;;;;;23.23;14.20;;;-3.40;99.90;;;;;;5082844;28;20025;-83
2024/02/13 03:29:41;;;;;;;28.05;13.05;;;-3.40;99.90;;;;;;5088419;28;20021;-83
2024/02/13 03:32:07;;;;;;;21.92;13.50;;;-3.50;99.90;;;;;;5094884;28;20032;-84
2024/02/13 03:34:33;;;;;;;24.98;15.02;;;-3.40;99.90;;;;;;5060884;28;20021;-82
2024/02/13 03:36:59;;;;;;;31.27;15.30;;;-3.50;99.90;;;;;;5077008;28;20024;-83
2024/02/13 03:39:25;;;;;;;30.25;16.52;;;-3.50;99.90;;;;;;5089036;28;20024;-81
2024/02/13 03:41:51;;;;;;;28.77;13.65;;;-3.50;99.90;;;;;;5080934;28;20374;-83
2024/02/13 03:44:17;;;;;;;23.42;14.10;;;-3.50;99.90;;;;;;5075963;28;20040;-83
2024/02/13 03:46:44;;;;;;;32.28;17.30;;;-3.50;99.90;;;;;;5076498;28;20008;-83
2024/02/13 03:49:10;;;;;;;26.15;13.88;;;-3.50;99.90;;;;;;5076049;28;20478;-83
2024/02/13 03:51:38;;;;;;;31.15;15.55;;;-3.50;99.90;;;;;;5076010;28;20028;-82
2024/02/13 03:54:12;;;;;;;23.45;13.07;;;-3.50;99.90;;;;;;5074692;28;20135;-82
2024/02/13 03:56:41;;;;;;;23.10;13.40;;;-3.50;99.90;;;;;;5075808;28;20056;-82
2024/02/13 03:59:10;;;;;;;21.67;14.77;;;-3.50;99.90;;;;;;5076519;28;20023;-83
2024/02/13 04:01:36;;;;;;;25.05;13.50;;;-3.40;99.90;;;;;;5077987;28;20067;-83
2024/02/13 04:04:04;;;;;;;23.98;15.52;;;-3.40;99.90;;;;;;5080616;28;20112;-83
2024/02/13 04:06:33;;;;;;;23.42;13.63;;;-3.40;99.90;;;;;;5082186;28;20017;-83
2024/02/13 04:09:03;;;;;;;28.02;15.85;;;-3.40;99.90;;;;;;5076409;28;20057;-83
2024/02/13 04:11:32;;;;;;;22.25;14.40;;;-3.40;99.90;;;;;;5075051;28;20043;-84
2024/02/13 04:13:58;;;;;;;23.73;14.55;;;-3.30;99.90;;;;;;5078450;28;20028;-84
2024/02/13 04:16:25;;;;;;;28.57;12.10;;;-3.30;99.90;;;;;;5076093;28;20082;-85
2024/02/13 04:18:53;;;;;;;21.80;13.13;;;-3.30;99.90;;;;;;5074919;28;20036;-85
2024/02/13 04:21:19;;;;;;;24.50;14.85;;;-3.40;99.90;;;;;;5075810;28;20059;-83
2024/02/13 04:23:46;;;;;;;27.40;15.60;;;-3.40;99.90;;;;;;5073926;28;20548;-83
2024/02/13 04:26:12;;;;;;;29.97;15.33;;;-3.30;99.90;;;;;;5095681;28;20040;-86
2024/02/13 04:28:40;;;;;;;25.27;15.00;;;-3.30;99.90;;;;;;5084867;28;20274;-86
2024/02/13 04:31:08;;;;;;;23.40;13.50;;;-3.30;99.90;;;;;;5082682;28;20044;-86
2024/02/13 04:33:34;;;;;;;26.33;15.45;;;-3.40;99.90;;;;;;5089940;28;20050;-86
2024/02/13 04:36:00;;;;;;;27.85;14.88;;;-3.40;99.90;;;;;;5078498;28;20117;-88
2024/02/13 04:38:26;;;;;;;31.08;16.35;;;-3.40;99.90;;;;;;5055789;28;20076;-86
2024/02/13 04:40:52;;;;;;;26.15;16.00;;;-3.40;99.90;;;;;;5066125;28;20028;-85
2024/02/13 04:43:18;;;;;;;28.88;14.52;;;-3.40;99.90;;;;;;5074237;28;20120;-85
2024/02/13 04:45:44;;;;;;;22.90;13.68;;;-3.40;99.90;;;;;;5076856;28;20024;-85
2024/02/13 04:48:13;;;;;;;25.35;11.88;;;-3.40;99.90;;;;;;5079824;28;20021;-86
2024/02/13 04:50:38;;;;;;;27.27;15.85;;;-3.50;99.90;;;;;;5088268;28;20022;-86
2024/02/13 04:53:04;;;;;;;27.83;15.85;;;-3.50;99.90;;;;;;5077450;28;20115;-85
2024/02/13 04:55:32;;;;;;;32.47;16.75;;;-3.50;99.90;;;;;;5076645;28;20025;-84
2024/02/13 04:57:58;;;;;;;23.88;13.85;;;-3.50;99.90;;;;;;5087229;28;20058;-85
2024/02/13 05:00:24;;;;;;;27.25;16.20;;;-3.50;99.90;;;;;;5077355;28;20016;-84
2024/02/13 05:03:16;;;;;;;20.67;12.10;;;-3.50;99.90;;;;;;5075193;28;20028;-84
2024/02/13 05:08:30;;;;;;;27.45;14.27;;;-3.70;99.90;;;;;;5079661;28;20350;-85
2024/02/13 05:10:59;;;;;;;17.83;12.10;;;-3.70;99.90;;;;;;5082377;28;20036;-84
2024/02/13 05:13:25;;;;;;;29.27;13.95;;;-3.70;99.90;;;;;;5080345;28;20024;-82
2024/02/13 05:15:51;;;;;;;24.55;13.80;;;-3.70;99.90;;;;;;5083248;28;20095;-82
2024/02/13 05:18:17;;;;;;;22.35;12.18;;;-3.70;99.90;;;;;;5073279;28;20055;-82
2024/02/13 05:20:44;;;;;;;22.20;12.45;;;-3.70;99.90;;;;;;5073089;28;20056;-81
2024/02/13 05:23:10;;;;;;;22.67;12.25;;;-3.70;99.90;;;;;;5074045;28;20397;-82
2024/02/13 05:25:36;;;;;;;26.75;15.52;;;-3.70;99.90;;;;;;5075356;28;20043;-83
2024/02/13 05:28:02;;;;;;;17.65;8.55;;;-3.70;99.90;;;;;;5076855;28;20021;-83
2024/02/13 05:30:28;;;;;;;25.77;13.25;;;-3.70;99.90;;;;;;5085959;28;20025;-85
2024/02/13 05:32:54;;;;;;;14.15;7.53;;;-3.70;99.90;;;;;;5093635;28;20079;-84
2024/02/13 05:35:20;;;;;;;29.83;13.18;;;-3.80;99.90;;;;;;5087494;28;20028;-83
2024/02/13 05:37:47;;;;;;;21.35;12.90;;;-3.80;99.90;;;;;;5074682;28;20050;-83
2024/02/13 05:40:13;;;;;;;19.80;11.65;;;-3.80;99.90;;;;;;5074877;28;20020;-84
2024/02/13 05:42:39;;;;;;;21.80;12.35;;;-3.70;99.90;;;;;;5072276;28;20481;-82
2024/02/13 05:45:06;;;;;;;18.38;11.93;;;-3.80;99.90;;;;;;5073267;28;20032;-84
2024/02/13 05:47:35;;;;;;;18.58;9.95;;;-3.80;99.90;;;;;;5074471;28;20366;-84
2024/02/13 05:50:06;;;;;;;26.02;13.68;;;-3.80;99.90;;;;;;5073669;28;20017;-82
2024/02/13 05:52:37;;;;;;;24.02;13.30;;;-3.80;99.90;;;;;;5072415;28;20051;-83
2024/02/13 05:55:04;;;;;;;21.92;14.60;;;-3.80;99.90;;;;;;5073261;28;20024;-82
2024/02/13 05:57:32;;;;;;;23.67;13.30;;;-3.80;99.90;;;;;;5064518;28;20115;-86
2024/02/13 05:59:58;;;;;;;24.27;14.38;;;-3.80;99.90;;;;;;5077835;28;20044;-84
2024/02/13 06:02:25;;;;;;;26.23;12.77;;;-3.70;99.90;;;;;;5070215;28;20143;-87
2024/02/13 06:04:51;;;;;;;26.20;14.90;;;-3.70;99.90;;;;;;5076356;28;20048;-87
2024/02/13 06:07:17;;;;;;;26.35;14.80;;;-3.70;99.90;;;;;;5075132;28;20075;-83
2024/02/13 06:09:43;;;;;;;25.42;14.45;;;-3.60;99.90;;;;;;5077379;28;20048;-80
2024/02/13 06:12:09;;;;;;;32.75;16.23;;;-3.60;99.90;;;;;;5073234;28;20489;-85
2024/02/13 06:14:35;;;;;;;27.30;15.50;;;-3.50;99.90;;;;;;5074774;28;20106;-84
2024/02/13 06:17:01;;;;;;;28.90;17.02;;;-3.50;99.90;;;;;;5073925;28;20031;-86
2024/02/13 06:19:26;;;;;;;26.27;14.95;;;-3.40;99.90;;;;;;5073027;28;20028;-85
2024/02/13 06:21:52;;;;;;;24.52;14.27;;;-3.40;99.90;;;;;;5073348;28;20025;-84
2024/02/13 06:24:18;;;;;;;27.77;15.93;;;-3.40;99.90;;;;;;5073522;28;20036;-84
2024/02/13 06:26:48;;;;;;;28.98;17.98;;;-3.40;99.90;;;;;;5075989;28;20385;-87
2024/02/13 06:29:15;;;;;;;22.83;15.48;;;-3.30;99.90;;;;;;5072689;28;20028;-84
2024/02/13 06:31:42;;;;;;;20.80;14.02;;;-3.40;99.90;;;;;;5074105;28;20059;-84
2024/02/13 06:34:08;;;;;;;26.08;14.20;;;-3.30;99.90;;;;;;5075093;28;20035;-85
2024/02/13 06:36:33;;;;;;;20.83;16.52;;;-3.30;99.90;;;;;;5080756;28;20016;-84
2024/02/13 06:38:59;;;;;;;30.65;16.33;;;-3.40;99.90;;;;;;5075244;28;20445;-83
2024/02/13 06:41:25;;;;;;;26.25;16.65;;;-3.40;99.90;;;;;;5083413;28;20058;-83
2024/02/13 06:43:51;;;;;;;22.25;15.13;;;-3.40;99.90;;;;;;5081232;28;20032;-85
2024/02/13 06:46:17;;;;;;;29.92;14.77;;;-3.40;99.90;;;;;;5073268;28;20013;-86
2024/02/13 06:48:44;;;;;;;24.52;13.13;;;-3.40;99.90;;;;;;5072303;28;20052;-84
2024/02/13 06:51:12;;;;;;;26.63;13.93;;;-3.40;99.90;;;;;;5073173;28;20063;-84
2024/02/13 06:53:38;;;;;;;25.00;15.02;;;-3.40;99.90;;;;;;5072587;28;20032;-85
2024/02/13 06:56:04;;;;;;;34.25;19.67;;;-3.40;99.90;;;;;;5072855;28;20466;-86
2024/02/13 06:58:30;;;;;;;27.63;16.63;;;-3.40;99.90;;;;;;5072750;28;20024;-83
2024/02/13 07:00:56;;;;;;;29.02;14.52;;;-3.30;99.90;;;;;;5073055;28;20021;-84
2024/02/13 07:03:22;;;;;;;28.08;15.73;;;-3.30;99.90;;;;;;5073064;28;20028;-86
2024/02/13 07:05:48;;;;;;;24.67;15.10;;;-3.20;99.90;;;;;;5072469;28;20043;-86
2024/02/13 07:08:15;;;;;;;26.30;15.02;;;-3.20;99.90;;;;;;5073108;28;20036;-83
2024/02/13 07:10:42;;;;;;;25.73;14.98;;;-3.20;99.90;;;;;;5072899;28;20024;-84
2024/02/13 07:13:08;;;;;;;27.48;15.00;;;-3.10;99.90;;;;;;5072937;28;20074;-86
2024/02/13 07:15:35;;;;;;;27.63;14.95;;;-3.10;99.90;;;;;;5075034;28;20028;-86
2024/02/13 07:18:03;;;;;;;27.10;14.88;;;-3.10;99.90;;;;;;5083958;28;20047;-85
2024/02/13 07:20:29;;;;;;;26.48;14.48;;;-3.00;99.90;;;;;;5073247;28;20024;-84
2024/02/13 07:22:56;;;;;;;22.15;14.50;;;-2.90;99.90;;;;;;5075265;28;20119;-85
2024/02/13 07:25:21;;;;;;;26.97;13.90;;;-2.80;99.90;;;;;;5088246;28;20421;-85
2024/02/13 07:27:48;;;;;;;24.63;15.45;;;-2.70;99.90;;;;;;5088160;28;20028;-85
2024/02/13 07:30:15;;;;;;;22.15;14.05;;;-2.70;99.90;;;;;;5074209;28;20021;-85
2024/02/13 07:32:41;;;;;;;22.70;14.48;;;-2.90;99.90;;;;;;5062084;28;20040;-82
2024/02/13 07:35:07;;;;;;;22.88;15.60;;;-3.00;99.90;;;;;;5083911;28;20469;-84
2024/02/13 07:37:33;;;;;;;19.02;12.55;;;-3.10;99.90;;;;;;5082475;28;20074;-86
2024/02/13 07:40:00;;;;;;;19.08;11.63;;;-3.10;99.90;;;;;;5073114;28;20470;-83
2024/02/13 07:42:28;;;;;;;;;;;-3.20;99.90;;;;;;5075174;28;20062;-86
2024/02/13 07:44:58;;;;;;;24.10;15.63;;;-3.30;99.90;;;;;;5072993;28;20280;-84
2024/02/13 07:47:28;;;;;;;26.42;14.35;;;-3.30;99.90;;;;;;5073590;28;20410;-85
2024/02/13 07:49:55;;;;;;;22.50;16.50;;;-3.40;99.90;;;;;;5071898;28;20056;-84
2024/02/13 07:52:21;;;;;;;25.75;16.00;;;-3.30;99.90;;;;;;5071173;28;20044;-85
2024/02/13 07:54:47;;;;;;;24.23;14.02;;;-3.20;99.90;;;;;;5076948;28;20040;-84
2024/02/13 07:57:16;;;;;;;26.15;16.10;;;-3.30;99.90;;;;;;5068239;28;20113;-86
2024/02/13 07:59:46;;;;;;;21.35;13.05;;;-3.40;99.90;;;;;;5065712;28;20443;-88
2024/02/13 08:02:13;;;;;;;21.10;14.10;;;-3.30;99.90;;;;;;5088641;28;20028;-84
2024/02/13 08:04:39;;;;;;;27.70;14.17;;;-3.20;99.90;;;;;;5083533;28;20134;-84
2024/02/13 08:07:07;;;;;;;26.52;14.65;;;-3.10;99.90;;;;;;5079482;28;20020;-84
2024/02/13 08:09:34;;;;;;;25.70;15.68;;;-2.90;99.90;;;;;;5091296;28;20159;-82
2024/02/13 08:12:05;;;;;;;21.25;12.93;;;-2.90;99.90;;;;;;5088618;28;20101;-84
2024/02/13 08:14:36;;;;;;;27.70;17.10;;;-2.90;99.90;;;;;;5089882;28;20074;-84
2024/02/13 08:17:06;;;;;;;32.80;15.85;;;-2.90;99.70;;;;;;5083204;28;20046;-85
2024/02/13 08:19:33;;;;;;;27.58;16.25;;;-3.10;99.80;;;;;;5075649;28;20029;-84
2024/02/13 08:22:00;;;;;;;25.45;15.82;;;-3.10;99.90;;;;;;5086872;28;20029;-85
2024/02/13 08:24:27;;;;;;;22.05;15.90;;;-3.10;99.90;;;;;;5083210;28;20040;-85
2024/02/13 08:26:52;;;;;;;22.80;13.25;;;-3.10;99.90;;;;;;5081695;28;20580;-85
2024/02/13 08:29:19;;;;;;;28.30;15.35;;;-2.90;99.90;;;;;;5100427;28;20085;-87
2024/02/13 08:31:45;;;;;;;29.45;18.27;;;-2.90;99.90;;;;;;5091043;28;20412;-85
2024/02/13 08:34:12;;;;;;;24.92;12.73;;;-2.80;99.90;;;;;;5093531;28;20028;-86
2024/02/13 08:36:38;;;;;;;21.30;14.32;;;-2.80;99.90;;;;;;5080909;28;20126;-82
2024/02/13 08:39:05;;;;;;;27.98;16.88;;;-2.70;99.90;;;;;;5066435;28;20024;-86
2024/02/13 08:41:31;;;;;;;28.88;16.67;;;-2.60;99.90;;;;;;5071643;28;20064;-86
2024/02/13 08:44:00;;;;;;;24.40;16.30;;;-2.40;99.90;;;;;;5074706;28;20109;-86
2024/02/13 08:46:26;;;;;;;29.25;15.35;;;-2.30;99.80;;;;;;5077041;28;20035;-87
2024/02/13 08:48:52;;;;;;;22.80;14.63;;;-2.30;99.60;;;;;;5077768;28;20052;-86
2024/02/13 08:51:25;;;;;;;26.33;15.80;;;-2.30;99.70;;;;;;5078811;28;20029;-85
2024/02/13 08:53:51;;;;;;;29.20;15.52;;;-2.20;99.40;;;;;;5063799;28;20021;-86
2024/02/13 08:56:17;;;;;;;22.92;13.93;;;-2.10;99.40;;;;;;5078034;28;20027;-86
2024/02/13 08:58:43;;;;;;;21.75;13.68;;;-2.20;99.30;;;;;;5078707;28;20088;-87
2024/02/13 09:01:09;;;;;;;26.90;15.25;;;-2.10;99.10;;;;;;5081449;28;20020;-87
2024/02/13 09:03:42;;;;;;;28.25;15.80;;;-2.20;99.00;;;;;;5078162;28;20047;-85
2024/02/13 09:06:08;;;;;;;26.98;16.42;;;-2.20;98.90;;;;;;5079054;28;20029;-85
2024/02/13 09:08:37;;;;;;;27.35;15.75;;;-2.20;98.60;;;;;;5077368;28;20405;-86
2024/02/13 09:11:03;;;;;;;19.27;13.68;;;-2.40;97.70;;;;;;5064145;28;20017;-85
2024/02/13 09:13:30;;;;;;;21.77;14.40;;;-2.60;98.30;;;;;;5076195;28;20035;-86
2024/02/13 09:16:02;;;;;;;21.83;9.23;;;-2.70;98.70;;;;;;5073898;28;20039;-84
2024/02/13 09:18:31;;;;;;;28.77;15.85;;;-2.70;99.20;;;;;;5074309;28;20031;-86
2024/02/13 09:21:00;;;;;;;28.67;16.63;;;-2.70;99.90;;;;;;5090560;28;20077;-84
2024/02/13 09:23:30;;;;;;;20.27;13.80;;;-2.70;99.60;;;;;;5074878;28;20437;-85
2024/02/13 09:25:56;;;;;;;28.33;20.05;;;-2.90;99.10;;;;;;5078241;28;20024;-85
2024/02/13 09:28:24;;;;;;;30.05;17.48;;;-2.90;99.40;;;;;;5082398;28;20095;-86
2024/02/13 09:30:50;;;;;;;30.15;16.20;;;-2.90;99.90;;;;;;5097925;28;20024;-86
2024/02/13 09:33:23;;;;;;;30.40;17.27;;;-2.90;99.90;;;;;;5077797;28;20020;-85
2024/02/13 09:35:50;;;;;;;23.75;14.65;;;-2.80;99.90;;;;;;5086730;28;20033;-85
2024/02/13 09:38:17;;;;;;;27.35;16.42;;;-2.70;99.80;;;;;;5088301;28;20031;-87
2024/02/13 09:40:43;;;;;;;29.00;18.30;;;-2.80;99.80;;;;;;5087873;28;20080;-85
2024/02/13 09:43:22;;;;;;;27.92;15.63;;;-2.70;99.80;;;;;;5079112;28;20119;-86
2024/02/13 09:45:52;;;;;;;28.40;16.80;;;-2.70;99.90;;;;;;5087149;28;20051;-87
2024/02/13 09:48:23;;;;;;;29.65;17.80;;;-2.70;99.90;;;;;;5075157;28;20417;-85
2024/02/13 09:50:50;;;;;;;30.30;18.23;;;-2.60;99.80;;;;;;5064010;28;20495;-87
2024/02/13 09:53:26;;;;;;;;;;;-2.50;99.60;;;;;;5074326;28;20469;-86
2024/02/13 09:56:01;;;;;;;25.77;17.83;;;-2.50;99.80;;;;;;5075939;28;19908;-86
2024/02/13 09:58:28;;;;;;;31.48;17.45;;;-2.50;99.30;;;;;;5073731;28;20389;-88
2024/02/13 10:00:54;;;;;;;27.55;16.85;;;-2.50;99.30;;;;;;5074559;28;20020;-86
2024/02/13 10:03:20;;;;;;;28.35;15.13;;;-2.50;99.40;;;;;;5058601;28;20106;-86
2024/02/13 10:05:46;;;;;;;27.45;15.13;;;-2.50;99.40;;;;;;5061160;28;20025;-85
2024/02/13 10:08:18;;;;;;;27.75;16.40;;;-2.40;99.50;;;;;;5074902;28;20024;-85
2024/02/13 10:10:44;;;;;;;25.88;15.77;;;-2.40;99.60;;;;;;5082855;28;20028;-87
2024/02/13 10:13:12;;;;;;;27.17;16.92;;;-2.40;99.50;;;;;;5087429;28;20025;-85
2024/02/13 10:15:43;;;;;;;18.60;9.00;;;-2.40;98.90;;;;;;5082091;28;20020;-86
2024/02/13 10:18:13;;;;;;;32.45;17.20;;;-2.50;98.60;;;;;;5079215;28;20047;-87
2024/02/13 10:20:43;;;;;;;25.05;17.02;;;-2.70;99.00;;;;;;5085506;28;20013;-88
2024/02/13 10:23:17;;;;;;;30.17;16.88;;;-2.70;99.40;;;;;;5077623;28;20032;-87
2024/02/13 10:25:43;;;;;;;25.38;14.50;;;-2.70;99.60;;;;;;5075385;28;20497;-87
2024/02/13 10:28:11;;;;;;;28.17;17.17;;;-2.70;99.70;;;;;;5075642;28;20021;-87
2024/02/13 10:30:38;;;;;;;25.20;16.10;;;-2.60;99.60;;;;;;5078279;28;20025;-85
2024/02/13 10:33:06;;;;;;;30.20;15.13;;;-2.60;99.30;;;;;;5076476;28;20021;-87
2024/02/13 10:35:35;;;;;;;28.08;16.63;;;-2.70;98.90;;;;;;5074481;28;20024;-86
2024/02/13 10:38:03;;;;;;;29.90;17.65;;;-2.90;99.00;;;;;;5074573;28;20031;-86
2024/02/13 10:40:29;;;;;;;24.30;14.25;;;-2.90;99.10;;;;;;5074899;28;20020;-86
2024/02/13 10:42:57;;;;;;;31.58;16.65;;;-2.90;99.50;;;;;;5073195;28;20409;-84
2024/02/13 10:45:26;;;;;;;;;;;-3.00;99.50;;;;;;5076073;28;20032;-86
2024/02/13 10:47:59;;;;;;;25.52;13.20;;;-2.90;99.70;;;;;;5076893;28;19958;-85
2024/02/13 10:50:25;;;;;;;30.30;19.55;;;-3.00;99.70;;;;;;5074660;28;20028;-85
2024/02/13 10:52:54;;;;;;;26.02;16.63;;;-3.10;99.60;;;;;;5079141;28;20040;-86
2024/02/13 10:55:22;;;;;;;31.42;15.85;;;-3.20;99.70;;;;;;5073510;28;20067;-84
2024/02/13 10:57:49;;;;;;;27.00;16.65;;;-3.10;99.90;;;;;;5086660;28;20031;-85
2024/02/13 11:00:19;;;;;;;30.35;17.98;;;-3.10;99.90;;;;;;5078469;28;20020;-87
2024/02/13 11:02:51;;;;;;;27.05;15.57;;;-3.00;99.90;;;;;;5075959;28;20080;-86
2024/02/13 11:05:19;;;;;;;21.55;12.40;;;-3.00;99.90;;;;;;5073075;28;20036;-86
2024/02/13 11:07:45;;;;;;;24.77;14.23;;;-2.90;99.80;;;;;;5086085;28;20057;-88
2024/02/13 11:10:12;;;;;;;26.70;14.77;;;-2.90;99.70;;;;;;5077242;28;20048;-85
2024/02/13 11:12:45;;;;;;;30.58;18.05;;;-2.90;99.70;;;;;;5081524;28;20362;-86
2024/02/13 11:15:21;;;;;;;21.95;12.30;;;-2.90;99.70;;;;;;5078014;28;20039;-86
2024/02/13 11:17:59;;;;;;;22.25;13.90;;;-2.90;99.30;;;;;;5088602;28;20040;-85
2024/02/13 11:20:30;;;;;;;26.85;15.77;;;-2.90;99.60;;;;;;5080172;28;20057;-86
2024/02/13 11:22:58;;;;;;;30.65;15.10;;;-2.90;99.30;;;;;;5085426;28;20055;-87
2024/02/13 11:25:28;;;;;;;28.02;16.35;;;-2.90;99.50;;;;;;5075375;28;20024;-86
2024/02/13 11:28:06;;;;;;;29.90;17.80;;;-2.80;99.50;;;;;;5073638;28;20016;-85
2024/02/13 11:30:37;;;;;;;30.08;17.88;;;-2.80;99.40;;;;;;5074856;28;20078;-85
2024/02/13 11:33:07;;;;;;;25.33;14.55;;;-2.70;99.50;;;;;;5090364;28;20024;-85
2024/02/13 11:35:44;;;;;;;31.42;19.52;;;-2.70;99.50;;;;;;5079660;28;20021;-87
2024/02/13 11:38:19;;;;;;;30.88;20.40;;;-2.60;99.40;;;;;;5083559;28;20013;-86
2024/02/13 11:40:55;;;;;;;30.98;16.55;;;-2.60;99.30;;;;;;5100202;28;20028;-86
2024/02/13 11:43:30;;;;;;;27.83;14.30;;;-2.70;99.30;;;;;;5084706;28;20024;-85
2024/02/13 11:46:03;;;;;;;28.15;15.48;;;-2.80;99.20;;;;;;5084556;28;20017;-88
2024/02/13 11:48:30;;;;;;;35.63;17.38;;;-2.90;99.40;;;;;;5079610;28;20088;-88
2024/02/13 11:50:56;;;;;;;26.52;14.68;;;-3.00;99.70;;;;;;5091177;28;20032;-84
2024/02/13 11:53:23;;;;;;;20.75;9.23;;;-2.90;99.70;;;;;;5096175;28;20032;-86
2024/02/13 11:55:49;;;;;;;28.35;16.33;;;-3.00;99.50;;;;;;5071921;28;20048;-86
2024/02/13 11:58:19;;;;;;;30.65;16.65;;;-3.00;99.40;;;;;;5078123;28;20025;-86
2024/02/13 12:00:57;;;;;;;24.52;14.95;;;-3.20;99.40;;;;;;5086759;28;20032;-86
2024/02/13 12:03:25;;;;;;;24.23;16.55;;;-3.30;99.30;;;;;;5084208;28;20817;-86
2024/02/13 12:05:51;;;;;;;24.92;16.15;;;-3.30;99.30;;;;;;5085627;28;20021;-87
2024/02/13 12:08:18;;;;;;;29.83;15.05;;;-3.40;99.40;;;;;;5083840;28;20024;-85
2024/02/13 12:10:44;;;;;;;29.23;16.35;;;-3.30;99.70;;;;;;5077155;28;20505;-87
2024/02/13 12:13:11;;;;;;;23.52;13.65;;;-3.30;99.80;;;;;;5078175;28;20036;-87
2024/02/13 12:15:38;;;;;;;;;;;-3.30;99.20;;;;;;5081227;28;20362;-88
2024/02/13 12:18:11;;;;;;;22.80;15.73;;;-3.50;99.00;;;;;;5077933;28;19924;-87
2024/02/13 12:20:37;;;;;;;22.13;12.80;;;-3.70;99.10;;;;;;5078297;28;20120;-86
2024/02/13 12:23:05;;;;;;;27.52;14.30;;;-3.80;99.40;;;;;;5076954;28;20032;-87
2024/02/13 12:25:32;;;;;;;20.00;13.13;;;-3.80;99.70;;;;;;5077954;28;20024;-86
2024/02/13 12:28:05;;;;;;;21.27;13.37;;;-3.90;99.90;;;;;;5076822;28;20104;-87
2024/02/13 12:30:34;;;;;;;22.65;14.50;;;-3.80;99.90;;;;;;5077730;28;20012;-88
2024/02/13 12:33:07;;;;;;;23.20;12.77;;;-3.80;99.90;;;;;;5078613;28;20535;-86
2024/02/13 12:35:35;;;;;;;26.33;13.95;;;-3.80;99.90;;;;;;5086308;28;20029;-85